sensor_id;sensor_type;location;lat;lon;timestamp;pressure;altitude;pressure_sealevel;temperature;humidity
36598;BME280;22607;49.550;11.940;2023-05-10T00:01:11;96219.66;;;13.47;62.33
36598;BME280;22607;49.550;11.940;2023-05-10T00:03:43;96218.88;;;13.33;62.80
36598;BME280;22607;49.550;11.940;2023-05-10T00:06:10;96214.81;;;13.37;63.71
36598;BME280;22607;49.550;11.940;2023-05-10T00:08:36;96212.38;;;13.35;64.35
36598;BME280;22607;49.550;11.940;2023-05-10T00:11:03;96213.63;;;13.26;65.85
36598;BME280;22607;49.550;11.940;2023-05-10T00:13:29;96189.66;;;13.34;67.59
36598;BME280;22607;49.550;11.940;2023-05-10T00:15:56;96212.78;;;13.12;67.78
36598;BME280;22607;49.550;11.940;2023-05-10T00:18:23;96196.78;;;13.27;66.08
36598;BME280;22607;49.550;11.940;2023-05-10T00:20:50;96192.91;;;13.23;65.37
36598;BME280;22607;49.550;11.940;2023-05-10T00:23:17;96188.47;;;13.30;66.86
36598;BME280;22607;49.550;11.940;2023-05-10T00:25:43;96194.94;;;13.34;65.65
36598;BME280;22607;49.550;11.940;2023-05-10T00:28:10;96178.75;;;13.24;65.91
36598;BME280;22607;49.550;11.940;2023-05-10T00:30:37;96185.00;;;13.30;66.25
36598;BME280;22607;49.550;11.940;2023-05-10T00:33:04;96188.06;;;13.26;66.04
36598;BME280;22607;49.550;11.940;2023-05-10T00:35:31;96186.22;;;13.27;65.07
36598;BME280;22607;49.550;11.940;2023-05-10T00:37:58;96189.88;;;13.26;65.48
36598;BME280;22607;49.550;11.940;2023-05-10T00:40:28;96188.47;;;13.23;65.97
36598;BME280;22607;49.550;11.940;2023-05-10T00:42:55;96177.13;;;13.03;68.46
36598;BME280;22607;49.550;11.940;2023-05-10T00:45:22;96171.63;;;13.24;65.11
36598;BME280;22607;49.550;11.940;2023-05-10T00:47:48;96178.09;;;13.35;64.66
36598;BME280;22607;49.550;11.940;2023-05-10T00:50:15;96170.38;;;13.34;63.78
36598;BME280;22607;49.550;11.940;2023-05-10T00:52:42;96167.34;;;13.37;64.20
36598;BME280;22607;49.550;11.940;2023-05-10T00:55:26;96171.03;;;13.16;65.83
36598;BME280;22607;49.550;11.940;2023-05-10T00:57:53;96156.03;;;13.09;63.96
36598;BME280;22607;49.550;11.940;2023-05-10T01:00:20;96164.94;;;13.22;63.98
36598;BME280;22607;49.550;11.940;2023-05-10T01:02:47;96165.59;;;12.97;64.96
36598;BME280;22607;49.550;11.940;2023-05-10T01:05:16;96161.72;;;12.99;65.05
36598;BME280;22607;49.550;11.940;2023-05-10T01:07:43;96162.56;;;12.86;65.40
36598;BME280;22607;49.550;11.940;2023-05-10T01:10:09;96159.09;;;12.66;66.56
36598;BME280;22607;49.550;11.940;2023-05-10T01:12:38;96167.19;;;12.78;66.57
36598;BME280;22607;49.550;11.940;2023-05-10T01:15:07;96168.63;;;12.87;66.48
36598;BME280;22607;49.550;11.940;2023-05-10T01:17:37;96166.41;;;12.70;66.31
36598;BME280;22607;49.550;11.940;2023-05-10T01:20:06;96168.22;;;12.70;67.53
36598;BME280;22607;49.550;11.940;2023-05-10T01:23:01;96165.78;;;12.62;69.34
36598;BME280;22607;49.550;11.940;2023-05-10T01:26:07;96164.53;;;12.57;69.20
36598;BME280;22607;49.550;11.940;2023-05-10T01:28:58;96164.56;;;12.71;68.13
36598;BME280;22607;49.550;11.940;2023-05-10T01:31:56;96167.59;;;12.54;69.63
36598;BME280;22607;49.550;11.940;2023-05-10T01:34:27;96168.41;;;12.55;69.48
36598;BME280;22607;49.550;11.940;2023-05-10T01:37:16;96166.97;;;12.52;69.61
36598;BME280;22607;49.550;11.940;2023-05-10T01:39:51;96162.53;;;12.59;69.37
36598;BME280;22607;49.550;11.940;2023-05-10T01:42:29;96157.06;;;12.54;68.99
36598;BME280;22607;49.550;11.940;2023-05-10T01:45:19;96161.91;;;12.57;68.69
36598;BME280;22607;49.550;11.940;2023-05-10T01:48:05;96167.19;;;12.57;68.78
36598;BME280;22607;49.550;11.940;2023-05-10T01:50:35;96167.81;;;12.66;68.83
36598;BME280;22607;49.550;11.940;2023-05-10T01:53:06;96171.81;;;12.42;69.24
36598;BME280;22607;49.550;11.940;2023-05-10T01:55:36;96176.50;;;12.60;68.44
36598;BME280;22607;49.550;11.940;2023-05-10T01:58:08;96166.16;;;12.45;69.15
36598;BME280;22607;49.550;11.940;2023-05-10T02:00:39;96176.72;;;12.58;70.27
36598;BME280;22607;49.550;11.940;2023-05-10T02:03:08;96174.28;;;12.57;69.69
36598;BME280;22607;49.550;11.940;2023-05-10T02:05:37;96162.75;;;12.65;68.94
36598;BME280;22607;49.550;11.940;2023-05-10T02:08:08;96172.66;;;12.63;69.26
36598;BME280;22607;49.550;11.940;2023-05-10T02:10:36;96162.34;;;12.68;68.66
36598;BME280;22607;49.550;11.940;2023-05-10T02:13:05;96163.97;;;12.69;67.91
36598;BME280;22607;49.550;11.940;2023-05-10T02:15:34;96161.31;;;12.69;67.50
36598;BME280;22607;49.550;11.940;2023-05-10T02:18:02;96169.81;;;12.71;68.68
36598;BME280;22607;49.550;11.940;2023-05-10T02:20:31;96157.28;;;12.73;68.52
36598;BME280;22607;49.550;11.940;2023-05-10T02:22:58;96171.44;;;12.72;68.94
36598;BME280;22607;49.550;11.940;2023-05-10T02:25:25;96168.22;;;12.70;67.96
36598;BME280;22607;49.550;11.940;2023-05-10T02:27:55;96177.94;;;12.49;68.59
36598;BME280;22607;49.550;11.940;2023-05-10T02:30:23;96163.75;;;12.64;68.78
36598;BME280;22607;49.550;11.940;2023-05-10T02:32:51;96172.47;;;12.64;69.73
36598;BME280;22607;49.550;11.940;2023-05-10T02:35:19;96165.75;;;12.55;69.09
36598;BME280;22607;49.550;11.940;2023-05-10T02:37:46;96165.19;;;12.80;67.71
36598;BME280;22607;49.550;11.940;2023-05-10T02:40:15;96163.13;;;12.68;68.71
36598;BME280;22607;49.550;11.940;2023-05-10T02:42:45;96165.78;;;12.62;68.58
36598;BME280;22607;49.550;11.940;2023-05-10T02:45:20;96164.53;;;12.57;69.30
36598;BME280;22607;49.550;11.940;2023-05-10T02:47:48;96158.50;;;12.64;68.51
36598;BME280;22607;49.550;11.940;2023-05-10T02:50:14;96158.50;;;12.77;68.30
36598;BME280;22607;49.550;11.940;2023-05-10T02:52:50;96152.41;;;12.77;68.30
36598;BME280;22607;49.550;11.940;2023-05-10T02:55:40;96152.00;;;12.53;70.23
36598;BME280;22607;49.550;11.940;2023-05-10T02:58:08;96163.78;;;12.77;70.29
36598;BME280;22607;49.550;11.940;2023-05-10T03:00:34;96164.16;;;12.74;68.53
36598;BME280;22607;49.550;11.940;2023-05-10T03:03:02;96152.59;;;12.75;69.14
36598;BME280;22607;49.550;11.940;2023-05-10T03:05:29;96156.44;;;12.66;70.32
36598;BME280;22607;49.550;11.940;2023-05-10T03:07:56;96165.78;;;12.75;70.14
36598;BME280;22607;49.550;11.940;2023-05-10T03:10:27;96157.66;;;12.70;72.18
36598;BME280;22607;49.550;11.940;2023-05-10T03:18:30;96155.84;;;12.91;71.28
36598;BME280;22607;49.550;11.940;2023-05-10T03:21:07;96152.41;;;12.83;74.43
36598;BME280;22607;49.550;11.940;2023-05-10T03:23:45;96159.28;;;12.91;74.27
36598;BME280;22607;49.550;11.940;2023-05-10T03:26:17;96152.00;;;12.86;73.54
36598;BME280;22607;49.550;11.940;2023-05-10T03:28:47;96158.47;;;12.91;72.34
36598;BME280;22607;49.550;11.940;2023-05-10T03:31:14;96143.88;;;12.95;71.99
36598;BME280;22607;49.550;11.940;2023-05-10T03:33:49;96142.88;;;12.96;72.85
36598;BME280;22607;49.550;11.940;2023-05-10T03:36:19;96151.59;;;12.90;73.71
36598;BME280;22607;49.550;11.940;2023-05-10T03:38:49;96153.63;;;12.81;78.26
36598;BME280;22607;49.550;11.940;2023-05-10T03:41:15;96153.81;;;12.79;76.64
36598;BME280;22607;49.550;11.940;2023-05-10T03:43:42;96154.41;;;12.81;75.86
36598;BME280;22607;49.550;11.940;2023-05-10T03:46:10;96160.72;;;12.80;77.91
36598;BME280;22607;49.550;11.940;2023-05-10T03:48:37;96159.50;;;12.76;79.15
36598;BME280;22607;49.550;11.940;2023-05-10T03:51:04;96161.91;;;12.71;80.67
36598;BME280;22607;49.550;11.940;2023-05-10T03:53:42;96162.94;;;12.70;83.83
36598;BME280;22607;49.550;11.940;2023-05-10T03:56:09;96166.56;;;12.42;94.25
36598;BME280;22607;49.550;11.940;2023-05-10T03:58:35;96183.00;;;12.71;90.16
36598;BME280;22607;49.550;11.940;2023-05-10T04:01:02;96165.78;;;12.68;90.42
36598;BME280;22607;49.550;11.940;2023-05-10T04:03:28;96167.63;;;12.61;90.10
36598;BME280;22607;49.550;11.940;2023-05-10T04:05:59;96168.81;;;12.58;99.82
36598;BME280;22607;49.550;11.940;2023-05-10T04:08:26;96177.28;;;12.33;100.00
36598;BME280;22607;49.550;11.940;2023-05-10T04:11:10;96190.03;;;12.30;100.00
36598;BME280;22607;49.550;11.940;2023-05-10T04:13:37;96187.25;;;12.45;100.00
36598;BME280;22607;49.550;11.940;2023-05-10T04:16:04;96185.59;;;12.44;100.00
36598;BME280;22607;49.550;11.940;2023-05-10T04:18:31;96192.91;;;12.42;100.00
36598;BME280;22607;49.550;11.940;2023-05-10T04:21:00;96183.94;;;12.29;100.00
36598;BME280;22607;49.550;11.940;2023-05-10T04:23:27;96180.72;;;12.27;100.00
36598;BME280;22607;49.550;11.940;2023-05-10T04:26:00;96178.31;;;12.39;100.00
36598;BME280;22607;49.550;11.940;2023-05-10T04:28:27;96193.75;;;12.00;100.00
36598;BME280;22607;49.550;11.940;2023-05-10T04:31:03;96181.91;;;12.18;100.00
36598;BME280;22607;49.550;11.940;2023-05-10T04:33:31;96189.97;;;12.10;100.00
36598;BME280;22607;49.550;11.940;2023-05-10T04:35:58;96192.75;;;12.01;100.00
36598;BME280;22607;49.550;11.940;2023-05-10T04:38:28;96200.91;;;12.13;100.00
36598;BME280;22607;49.550;11.940;2023-05-10T04:40:55;96208.22;;;12.11;100.00
36598;BME280;22607;49.550;11.940;2023-05-10T04:43:29;96192.38;;;12.04;100.00
36598;BME280;22607;49.550;11.940;2023-05-10T04:45:56;96199.69;;;12.09;100.00
36598;BME280;22607;49.550;11.940;2023-05-10T04:48:23;96203.69;;;11.98;100.00
36598;BME280;22607;49.550;11.940;2023-05-10T04:50:49;96201.53;;;12.08;100.00
36598;BME280;22607;49.550;11.940;2023-05-10T04:53:16;96203.78;;;12.25;100.00
36598;BME280;22607;49.550;11.940;2023-05-10T04:55:42;96198.50;;;12.18;100.00
36598;BME280;22607;49.550;11.940;2023-05-10T04:58:09;96198.91;;;12.15;100.00
36598;BME280;22607;49.550;11.940;2023-05-10T05:00:35;96201.91;;;12.05;100.00
36598;BME280;22607;49.550;11.940;2023-05-10T05:03:02;96204.16;;;12.08;100.00
36598;BME280;22607;49.550;11.940;2023-05-10T05:05:29;96214.56;;;12.30;100.00
36598;BME280;22607;49.550;11.940;2023-05-10T05:07:56;96206.25;;;12.33;100.00
36598;BME280;22607;49.550;11.940;2023-05-10T05:10:23;96221.66;;;12.37;100.00
36598;BME280;22607;49.550;11.940;2023-05-10T05:12:49;96224.25;;;12.30;100.00
36598;BME280;22607;49.550;11.940;2023-05-10T05:15:16;96231.75;;;12.26;100.00
36598;BME280;22607;49.550;11.940;2023-05-10T05:17:43;96229.66;;;12.08;100.00
36598;BME280;22607;49.550;11.940;2023-05-10T05:20:10;96227.69;;;12.17;100.00
36598;BME280;22607;49.550;11.940;2023-05-10T05:22:37;96233.16;;;12.22;100.00
36598;BME280;22607;49.550;11.940;2023-05-10T05:25:04;96237.22;;;12.31;100.00
36598;BME280;22607;49.550;11.940;2023-05-10T05:27:46;96239.84;;;12.25;100.00
36598;BME280;22607;49.550;11.940;2023-05-10T05:30:12;96250.91;;;12.13;100.00
36598;BME280;22607;49.550;11.940;2023-05-10T05:32:40;96242.28;;;12.26;100.00
36598;BME280;22607;49.550;11.940;2023-05-10T05:35:06;96256.91;;;12.36;100.00
36598;BME280;22607;49.550;11.940;2023-05-10T05:37:35;96259.69;;;12.27;100.00
36598;BME280;22607;49.550;11.940;2023-05-10T05:40:02;96261.69;;;12.25;100.00
36598;BME280;22607;49.550;11.940;2023-05-10T05:42:29;96259.50;;;12.29;100.00
36598;BME280;22607;49.550;11.940;2023-05-10T05:45:00;96267.19;;;12.24;100.00
36598;BME280;22607;49.550;11.940;2023-05-10T05:47:27;96270.28;;;12.41;100.00
36598;BME280;22607;49.550;11.940;2023-05-10T05:49:53;96273.47;;;12.29;100.00
36598;BME280;22607;49.550;11.940;2023-05-10T05:52:20;96261.13;;;12.30;100.00
36598;BME280;22607;49.550;11.940;2023-05-10T05:54:47;96268.16;;;12.23;100.00
36598;BME280;22607;49.550;11.940;2023-05-10T05:57:14;96274.69;;;12.33;100.00
36598;BME280;22607;49.550;11.940;2023-05-10T05:59:40;96270.88;;;12.43;100.00
36598;BME280;22607;49.550;11.940;2023-05-10T06:02:12;96276.31;;;12.34;100.00
36598;BME280;22607;49.550;11.940;2023-05-10T06:04:38;96282.03;;;12.45;100.00
36598;BME280;22607;49.550;11.940;2023-05-10T06:07:08;96270.88;;;12.43;100.00
36598;BME280;22607;49.550;11.940;2023-05-10T06:09:34;96273.94;;;12.53;100.00
36598;BME280;22607;49.550;11.940;2023-05-10T06:12:01;96288.31;;;12.51;100.00
36598;BME280;22607;49.550;11.940;2023-05-10T06:14:27;96287.09;;;12.40;100.00
36598;BME280;22607;49.550;11.940;2023-05-10T06:16:54;96278.78;;;12.43;100.00
36598;BME280;22607;49.550;11.940;2023-05-10T06:19:21;96287.75;;;12.55;100.00
36598;BME280;22607;49.550;11.940;2023-05-10T06:21:48;96284.22;;;12.34;100.00
36598;BME280;22607;49.550;11.940;2023-05-10T06:24:14;96293.72;;;12.22;100.00
36598;BME280;22607;49.550;11.940;2023-05-10T06:26:41;96297.34;;;12.28;100.00
36598;BME280;22607;49.550;11.940;2023-05-10T06:29:13;96303.00;;;12.18;100.00
36598;BME280;22607;49.550;11.940;2023-05-10T06:31:41;96296.75;;;12.26;100.00
36598;BME280;22607;49.550;11.940;2023-05-10T06:34:08;96306.72;;;12.30;100.00
36598;BME280;22607;49.550;11.940;2023-05-10T06:36:36;96295.94;;;12.25;100.00
36598;BME280;22607;49.550;11.940;2023-05-10T06:39:03;96308.72;;;12.28;100.00
36598;BME280;22607;49.550;11.940;2023-05-10T06:41:30;96310.25;;;12.16;100.00
36598;BME280;22607;49.550;11.940;2023-05-10T06:43:57;96302.63;;;12.28;100.00
36598;BME280;22607;49.550;11.940;2023-05-10T06:46:23;96308.47;;;12.23;100.00
36598;BME280;22607;49.550;11.940;2023-05-10T06:48:50;96310.13;;;12.31;100.00
36598;BME280;22607;49.550;11.940;2023-05-10T06:51:16;96307.47;;;12.24;100.00
36598;BME280;22607;49.550;11.940;2023-05-10T06:53:45;96321.13;;;12.48;100.00
36598;BME280;22607;49.550;11.940;2023-05-10T06:56:11;96317.28;;;12.44;100.00
36598;BME280;22607;49.550;11.940;2023-05-10T06:58:39;96315.88;;;12.48;100.00
36598;BME280;22607;49.550;11.940;2023-05-10T07:01:05;96315.69;;;12.56;100.00
36598;BME280;22607;49.550;11.940;2023-05-10T07:03:32;96313.88;;;12.50;100.00
36598;BME280;22607;49.550;11.940;2023-05-10T07:06:02;96323.78;;;12.55;100.00
36598;BME280;22607;49.550;11.940;2023-05-10T07:08:31;96321.59;;;12.58;100.00
36598;BME280;22607;49.550;11.940;2023-05-10T07:11:04;96329.03;;;12.48;100.00
36598;BME280;22607;49.550;11.940;2023-05-10T07:13:33;96322.16;;;12.47;100.00
36598;BME280;22607;49.550;11.940;2023-05-10T07:16:06;96333.69;;;12.46;100.00
36598;BME280;22607;49.550;11.940;2023-05-10T07:18:34;96339.97;;;12.45;100.00
36598;BME280;22607;49.550;11.940;2023-05-10T07:21:07;96339.56;;;12.48;100.00
36598;BME280;22607;49.550;11.940;2023-05-10T07:23:35;96340.41;;;12.49;100.00
36598;BME280;22607;49.550;11.940;2023-05-10T07:26:07;96329.25;;;12.53;100.00
36598;BME280;22607;49.550;11.940;2023-05-10T07:28:36;96338.84;;;12.68;100.00
36598;BME280;22607;49.550;11.940;2023-05-10T07:31:13;96335.59;;;12.66;100.00
36598;BME280;22607;49.550;11.940;2023-05-10T07:33:47;96341.28;;;12.76;100.00
36598;BME280;22607;49.550;11.940;2023-05-10T07:36:14;96328.78;;;12.85;100.00
36598;BME280;22607;49.550;11.940;2023-05-10T07:38:40;96331.81;;;12.89;100.00
36598;BME280;22607;49.550;11.940;2023-05-10T07:41:07;96346.47;;;13.18;100.00
36598;BME280;22607;49.550;11.940;2023-05-10T07:43:33;96356.63;;;13.15;100.00
36598;BME280;22607;49.550;11.940;2023-05-10T07:46:00;96342.81;;;13.19;100.00
36598;BME280;22607;49.550;11.940;2023-05-10T07:48:27;96336.53;;;13.27;100.00
36598;BME280;22607;49.550;11.940;2023-05-10T07:50:53;96347.50;;;13.31;100.00
36598;BME280;22607;49.550;11.940;2023-05-10T07:53:20;96341.41;;;13.37;100.00
36598;BME280;22607;49.550;11.940;2023-05-10T07:55:51;96353.97;;;13.42;100.00
36598;BME280;22607;49.550;11.940;2023-05-10T07:58:17;96343.66;;;13.40;100.00
36598;BME280;22607;49.550;11.940;2023-05-10T08:00:44;96349.94;;;13.46;100.00
36598;BME280;22607;49.550;11.940;2023-05-10T08:03:11;96349.97;;;13.59;100.00
36598;BME280;22607;49.550;11.940;2023-05-10T08:05:38;96350.16;;;13.64;100.00
36598;BME280;22607;49.550;11.940;2023-05-10T08:08:04;96337.59;;;13.73;100.00
36598;BME280;22607;49.550;11.940;2023-05-10T08:10:31;96362.53;;;13.91;100.00
36598;BME280;22607;49.550;11.940;2023-05-10T08:12:58;96354.56;;;14.11;100.00
36598;BME280;22607;49.550;11.940;2023-05-10T08:15:32;96351.75;;;13.93;100.00
36598;BME280;22607;49.550;11.940;2023-05-10T08:17:59;96359.59;;;14.33;100.00
36598;BME280;22607;49.550;11.940;2023-05-10T08:20:26;96356.13;;;14.33;100.00
36598;BME280;22607;49.550;11.940;2023-05-10T08:22:53;96367.16;;;14.82;100.00
36598;BME280;22607;49.550;11.940;2023-05-10T08:25:20;96354.34;;;14.86;100.00
36598;BME280;22607;49.550;11.940;2023-05-10T08:27:47;96366.38;;;14.81;100.00
36598;BME280;22607;49.550;11.940;2023-05-10T08:30:14;96364.97;;;14.79;100.00
36598;BME280;22607;49.550;11.940;2023-05-10T08:32:40;96359.88;;;14.70;100.00
36598;BME280;22607;49.550;11.940;2023-05-10T08:35:07;96365.81;;;14.59;100.00
36598;BME280;22607;49.550;11.940;2023-05-10T08:37:33;96373.59;;;14.40;100.00
36598;BME280;22607;49.550;11.940;2023-05-10T08:40:00;96371.78;;;14.34;100.00
36598;BME280;22607;49.550;11.940;2023-05-10T08:42:40;96374.44;;;14.34;100.00
36598;BME280;22607;49.550;11.940;2023-05-10T08:45:10;96374.59;;;14.46;100.00
36598;BME280;22607;49.550;11.940;2023-05-10T08:47:38;96376.44;;;14.46;100.00
36598;BME280;22607;49.550;11.940;2023-05-10T08:50:06;96378.66;;;14.49;100.00
36598;BME280;22607;49.550;11.940;2023-05-10T08:52:35;96372.56;;;14.55;100.00
36598;BME280;22607;49.550;11.940;2023-05-10T08:55:05;96374.50;;;14.73;100.00
36598;BME280;22607;49.550;11.940;2023-05-10T08:57:31;96387.03;;;14.91;100.00
36598;BME280;22607;49.550;11.940;2023-05-10T09:00:00;96385.03;;;14.93;100.00
36598;BME280;22607;49.550;11.940;2023-05-10T09:02:27;96370.34;;;14.98;100.00
36598;BME280;22607;49.550;11.940;2023-05-10T09:04:54;96379.16;;;15.23;100.00
36598;BME280;22607;49.550;11.940;2023-05-10T09:07:20;96371.53;;;15.08;100.00
36598;BME280;22607;49.550;11.940;2023-05-10T09:09:48;96384.16;;;15.00;100.00
36598;BME280;22607;49.550;11.940;2023-05-10T09:12:16;96383.81;;;14.89;100.00
36598;BME280;22607;49.550;11.940;2023-05-10T09:14:44;96383.44;;;15.50;100.00
36598;BME280;22607;49.550;11.940;2023-05-10T09:17:11;96382.00;;;15.80;100.00
36598;BME280;22607;49.550;11.940;2023-05-10T09:19:37;96366.69;;;15.63;100.00
36598;BME280;22607;49.550;11.940;2023-05-10T09:22:05;96391.47;;;15.94;100.00
36598;BME280;22607;49.550;11.940;2023-05-10T09:24:32;96400.25;;;15.62;100.00
36598;BME280;22607;49.550;11.940;2023-05-10T09:26:58;96389.63;;;15.69;100.00
36598;BME280;22607;49.550;11.940;2023-05-10T09:29:25;96402.28;;;15.93;100.00
36598;BME280;22607;49.550;11.940;2023-05-10T09:31:52;96389.25;;;15.91;100.00
36598;BME280;22607;49.550;11.940;2023-05-10T09:34:29;96386.03;;;15.82;100.00
36598;BME280;22607;49.550;11.940;2023-05-10T09:36:57;96391.88;;;15.98;100.00
36598;BME280;22607;49.550;11.940;2023-05-10T09:39:34;96393.88;;;16.21;100.00
36598;BME280;22607;49.550;11.940;2023-05-10T09:42:09;96400.34;;;16.07;100.00
36598;BME280;22607;49.550;11.940;2023-05-10T09:44:36;96386.31;;;16.06;100.00
36598;BME280;22607;49.550;11.940;2023-05-10T09:47:04;96389.84;;;16.19;100.00
36598;BME280;22607;49.550;11.940;2023-05-10T09:49:30;96395.44;;;16.29;100.00
36598;BME280;22607;49.550;11.940;2023-05-10T09:52:02;96401.28;;;16.38;100.00
36598;BME280;22607;49.550;11.940;2023-05-10T09:54:30;96395.06;;;16.44;100.00
36598;BME280;22607;49.550;11.940;2023-05-10T09:56:56;96393.03;;;16.65;100.00
36598;BME280;22607;49.550;11.940;2023-05-10T09:59:25;96397.47;;;17.02;100.00
36598;BME280;22607;49.550;11.940;2023-05-10T10:01:59;96394.00;;;17.01;100.00
36598;BME280;22607;49.550;11.940;2023-05-10T10:04:26;96409.63;;;17.10;100.00
36598;BME280;22607;49.550;11.940;2023-05-10T10:07:00;96408.28;;;17.19;100.00
36598;BME280;22607;49.550;11.940;2023-05-10T10:09:28;96393.41;;;16.99;100.00
36598;BME280;22607;49.550;11.940;2023-05-10T10:11:54;96389.84;;;17.24;100.00
36598;BME280;22607;49.550;11.940;2023-05-10T10:14:22;96398.78;;;17.42;100.00
36598;BME280;22607;49.550;11.940;2023-05-10T10:16:50;96403.34;;;17.65;100.00
36598;BME280;22607;49.550;11.940;2023-05-10T10:19:33;96373.56;;;17.75;100.00
36598;BME280;22607;49.550;11.940;2023-05-10T10:22:02;96383.63;;;17.97;96.95
36598;BME280;22607;49.550;11.940;2023-05-10T10:24:29;96389.41;;;17.94;98.82
36598;BME280;22607;49.550;11.940;2023-05-10T10:26:59;96396.56;;;18.05;100.00
36598;BME280;22607;49.550;11.940;2023-05-10T10:29:38;96395.97;;;17.79;100.00
36598;BME280;22607;49.550;11.940;2023-05-10T10:32:38;96399.31;;;17.75;92.87
36598;BME280;22607;49.550;11.940;2023-05-10T10:35:08;96387.84;;;17.50;100.00
36598;BME280;22607;49.550;11.940;2023-05-10T10:37:46;96392.72;;;17.65;94.41
36598;BME280;22607;49.550;11.940;2023-05-10T10:40:32;96397.31;;;17.46;100.00
36598;BME280;22607;49.550;11.940;2023-05-10T10:43:26;96401.25;;;17.55;92.48
36598;BME280;22607;49.550;11.940;2023-05-10T10:46:13;96383.75;;;17.78;91.81
36598;BME280;22607;49.550;11.940;2023-05-10T10:48:43;96381.69;;;18.16;98.88
36598;BME280;22607;49.550;11.940;2023-05-10T10:51:13;96376.59;;;18.39;90.62
36598;BME280;22607;49.550;11.940;2023-05-10T10:53:40;96382.81;;;18.44;84.32
36598;BME280;22607;49.550;11.940;2023-05-10T10:56:09;96377.06;;;18.35;88.97
36598;BME280;22607;49.550;11.940;2023-05-10T10:58:38;96370.63;;;18.72;82.08
36598;BME280;22607;49.550;11.940;2023-05-10T11:01:10;96379.50;;;18.78;82.53
36598;BME280;22607;49.550;11.940;2023-05-10T11:03:38;96375.25;;;19.06;80.78
36598;BME280;22607;49.550;11.940;2023-05-10T11:06:10;96370.19;;;18.93;79.67
36598;BME280;22607;49.550;11.940;2023-05-10T11:08:43;96371.59;;;18.54;80.09
36598;BME280;22607;49.550;11.940;2023-05-10T11:11:14;96369.50;;;18.44;79.61
36598;BME280;22607;49.550;11.940;2023-05-10T11:13:45;96369.44;;;18.27;88.19
36598;BME280;22607;49.550;11.940;2023-05-10T11:16:17;96370.47;;;18.02;89.90
36598;BME280;22607;49.550;11.940;2023-05-10T11:19:04;96371.84;;;18.05;89.58
36598;BME280;22607;49.550;11.940;2023-05-10T11:21:34;96372.81;;;18.10;92.40
36598;BME280;22607;49.550;11.940;2023-05-10T11:24:15;96370.13;;;17.87;93.67
36598;BME280;22607;49.550;11.940;2023-05-10T11:26:42;96375.19;;;17.88;100.00
36598;BME280;22607;49.550;11.940;2023-05-10T11:29:10;96380.03;;;17.67;90.01
36598;BME280;22607;49.550;11.940;2023-05-10T11:31:42;96386.47;;;17.60;95.43
36598;BME280;22607;49.550;11.940;2023-05-10T11:34:10;96380.97;;;17.73;95.49
36598;BME280;22607;49.550;11.940;2023-05-10T11:36:37;96382.25;;;17.94;94.89
36598;BME280;22607;49.550;11.940;2023-05-10T11:39:04;96374.38;;;18.00;87.59
36598;BME280;22607;49.550;11.940;2023-05-10T11:41:31;96364.94;;;18.28;85.48
36598;BME280;22607;49.550;11.940;2023-05-10T11:43:58;96381.22;;;18.31;85.87
36598;BME280;22607;49.550;11.940;2023-05-10T11:46:26;96376.38;;;18.28;84.30
36598;BME280;22607;49.550;11.940;2023-05-10T11:48:59;96376.50;;;18.33;79.61
36598;BME280;22607;49.550;11.940;2023-05-10T11:51:27;96376.34;;;18.52;78.86
36598;BME280;22607;49.550;11.940;2023-05-10T11:53:55;96374.00;;;18.56;81.50
36598;BME280;22607;49.550;11.940;2023-05-10T11:56:24;96375.34;;;18.29;88.70
36598;BME280;22607;49.550;11.940;2023-05-10T11:58:56;96379.63;;;18.71;77.05
36598;BME280;22607;49.550;11.940;2023-05-10T12:01:30;96378.28;;;18.57;80.48
36598;BME280;22607;49.550;11.940;2023-05-10T12:03:58;96378.09;;;18.34;79.73
36598;BME280;22607;49.550;11.940;2023-05-10T12:06:28;96379.16;;;18.33;79.98
36598;BME280;22607;49.550;11.940;2023-05-10T12:08:55;96380.16;;;18.32;79.03
36598;BME280;22607;49.550;11.940;2023-05-10T12:11:25;96386.19;;;18.28;78.54
36598;BME280;22607;49.550;11.940;2023-05-10T12:13:55;96392.19;;;18.35;80.16
36598;BME280;22607;49.550;11.940;2023-05-10T12:16:24;96392.78;;;18.13;78.60
36598;BME280;22607;49.550;11.940;2023-05-10T12:18:53;96394.06;;;18.10;78.91
36598;BME280;22607;49.550;11.940;2023-05-10T12:21:28;96389.78;;;18.09;78.13
36598;BME280;22607;49.550;11.940;2023-05-10T12:23:59;96394.63;;;18.13;88.72
36598;BME280;22607;49.550;11.940;2023-05-10T12:26:29;96395.41;;;18.01;78.74
36598;BME280;22607;49.550;11.940;2023-05-10T12:29:12;96384.78;;;17.89;78.17
36598;BME280;22607;49.550;11.940;2023-05-10T12:31:57;96395.56;;;18.18;77.21
36598;BME280;22607;49.550;11.940;2023-05-10T12:34:25;96396.25;;;18.14;79.57
36598;BME280;22607;49.550;11.940;2023-05-10T12:36:53;96399.78;;;18.55;75.68
36598;BME280;22607;49.550;11.940;2023-05-10T12:39:22;96394.47;;;18.55;77.19
36598;BME280;22607;49.550;11.940;2023-05-10T12:41:49;96382.81;;;18.32;71.58
36598;BME280;22607;49.550;11.940;2023-05-10T12:44:24;96393.81;;;18.48;72.30
36598;BME280;22607;49.550;11.940;2023-05-10T12:46:51;96387.50;;;18.66;71.33
36598;BME280;22607;49.550;11.940;2023-05-10T12:49:17;96388.25;;;18.49;66.80
36598;BME280;22607;49.550;11.940;2023-05-10T12:51:46;96379.69;;;18.47;77.04
36598;BME280;22607;49.550;11.940;2023-05-10T12:54:12;96390.81;;;18.85;82.56
36598;BME280;22607;49.550;11.940;2023-05-10T12:56:39;96383.22;;;18.77;76.98
36598;BME280;22607;49.550;11.940;2023-05-10T12:59:07;96386.97;;;18.93;76.47
36598;BME280;22607;49.550;11.940;2023-05-10T13:01:33;96387.25;;;18.80;74.51
36598;BME280;22607;49.550;11.940;2023-05-10T13:04:00;96377.19;;;18.70;78.34